createdAt,value
2019-03-20T00:01:20.014Z,5.12
2019-03-20T00:03:49.382Z,5.18
2019-03-20T00:06:19.029Z,5.26
2019-03-20T00:08:48.726Z,5.33
2019-03-20T00:11:18.259Z,5.37
2019-03-20T00:13:47.616Z,5.39
2019-03-20T00:16:16.973Z,5.41
2019-03-20T00:18:46.625Z,5.40
2019-03-20T00:21:15.976Z,5.42
2019-03-20T00:26:41.403Z,5.46
2019-03-20T00:29:11.070Z,5.46
2019-03-20T00:31:41.527Z,5.45
2019-03-20T00:34:11.066Z,5.44
2019-03-20T00:36:41.348Z,5.41
2019-03-20T00:39:11.012Z,5.42
2019-03-20T00:41:41.392Z,5.42
2019-03-20T00:44:11.048Z,5.43
2019-03-20T00:46:41.490Z,5.42
2019-03-20T00:49:11.056Z,5.39
2019-03-20T00:52:00.815Z,5.24
2019-03-20T00:54:30.183Z,5.24
2019-03-20T00:57:11.909Z,5.15
2019-03-20T00:59:41.583Z,5.09
2019-03-20T01:02:11.123Z,5.05
2019-03-20T01:04:41.513Z,4.99
2019-03-20T01:07:11.308Z,5.03
2019-03-20T01:09:41.518Z,5.06
2019-03-20T01:12:11.157Z,5.09
2019-03-20T01:14:41.543Z,5.14
2019-03-20T01:17:11.333Z,5.16
2019-03-20T01:19:41.519Z,5.15
2019-03-20T01:22:11.152Z,5.13
2019-03-20T01:24:41.447Z,5.12
2019-03-20T01:27:10.803Z,5.11
2019-03-20T01:29:41.648Z,5.10
2019-03-20T01:32:11.224Z,5.06
2019-03-20T01:34:41.527Z,5.03
2019-03-20T01:37:11.960Z,5.04
2019-03-20T01:39:41.583Z,5.07
2019-03-20T01:42:11.480Z,5.12
2019-03-20T01:44:41.606Z,5.17
2019-03-20T01:47:11.163Z,5.18
2019-03-20T01:49:41.639Z,5.19
2019-03-20T01:52:12.609Z,5.18
2019-03-20T01:54:42.264Z,5.16
2019-03-20T01:57:26.821Z,5.14
2019-03-20T02:00:09.228Z,5.14
2019-03-20T02:02:38.869Z,5.12
2019-03-20T02:08:10.217Z,5.14
2019-03-20T02:10:51.298Z,5.14
2019-03-20T02:13:16.250Z,5.15
2019-03-20T02:15:45.624Z,5.11
2019-03-20T02:18:15.284Z,5.06
2019-03-20T02:20:44.657Z,5.02
2019-03-20T02:23:14.342Z,5.01
2019-03-20T02:25:43.712Z,5.00
2019-03-20T02:28:13.671Z,4.95
2019-03-20T02:30:43.561Z,4.92
2019-03-20T02:33:12.912Z,4.86
2019-03-20T02:35:51.291Z,4.79
2019-03-20T02:38:32.713Z,4.76
2019-03-20T02:41:02.302Z,4.72
2019-03-20T02:43:31.908Z,4.67
2019-03-20T02:46:01.313Z,4.60
2019-03-20T02:48:49.817Z,4.52
2019-03-20T02:51:19.787Z,4.47
2019-03-20T02:53:49.441Z,4.46
2019-03-20T02:56:18.810Z,4.43
2019-03-20T02:58:48.468Z,4.42
2019-03-20T03:01:17.844Z,4.42
2019-03-20T03:03:47.641Z,4.39
2019-03-20T03:06:17.029Z,4.38
2019-03-20T03:08:46.701Z,4.38
2019-03-20T03:11:16.388Z,4.39
2019-03-20T03:13:46.050Z,4.38
2019-03-20T03:16:15.494Z,4.39
2019-03-20T03:18:45.159Z,4.39
2019-03-20T03:21:14.795Z,4.41
2019-03-20T03:23:44.449Z,4.43
2019-03-20T03:26:14.096Z,4.45
2019-03-20T03:28:43.785Z,4.46
2019-03-20T03:31:13.505Z,4.45
2019-03-20T03:33:43.163Z,4.43
2019-03-20T03:36:21.264Z,4.40
2019-03-20T03:41:59.001Z,4.24
2019-03-20T03:44:28.568Z,4.16
2019-03-20T03:46:57.916Z,4.11
2019-03-20T03:49:27.550Z,4.10
2019-03-20T03:51:56.914Z,4.09
2019-03-20T03:54:26.595Z,4.02
2019-03-20T03:56:55.945Z,3.98
2019-03-20T03:59:25.664Z,3.95
2019-03-20T04:01:55.023Z,3.95
2019-03-20T04:04:24.628Z,3.98
2019-03-20T04:06:54.308Z,4.02
2019-03-20T04:09:23.668Z,4.04
2019-03-20T04:11:53.145Z,4.07
2019-03-20T04:14:22.649Z,4.11
2019-03-20T04:16:52.037Z,4.16
2019-03-20T04:19:21.666Z,4.24
2019-03-20T04:21:51.334Z,4.31
2019-03-20T04:24:20.813Z,4.32
2019-03-20T04:26:50.149Z,4.33
2019-03-20T04:29:19.651Z,4.37
2019-03-20T04:31:49.027Z,4.39
2019-03-20T04:34:21.241Z,4.42
2019-03-20T04:36:50.931Z,4.41
2019-03-20T04:39:20.290Z,4.38
2019-03-20T04:44:31.799Z,4.43
2019-03-20T04:47:01.158Z,4.44
2019-03-20T04:49:30.979Z,4.42
2019-03-20T04:52:00.657Z,4.39
2019-03-20T04:54:30.078Z,4.36
2019-03-20T04:56:59.680Z,4.37
2019-03-20T04:59:29.057Z,4.37
2019-03-20T05:01:58.951Z,4.39
2019-03-20T05:04:28.629Z,4.42
2019-03-20T05:06:59.977Z,4.41
2019-03-20T05:09:29.360Z,4.42
2019-03-20T05:11:58.896Z,4.40
2019-03-20T05:14:28.581Z,4.40
2019-03-20T05:16:58.035Z,4.39
2019-03-20T05:19:27.693Z,4.38
2019-03-20T05:21:57.062Z,4.32
2019-03-20T05:24:26.723Z,4.30
2019-03-20T05:26:56.094Z,4.26
2019-03-20T05:29:25.799Z,4.22
2019-03-20T05:38:12.286Z,4.23
2019-03-20T05:43:44.116Z,4.27
2019-03-20T05:46:13.494Z,4.28
2019-03-20T05:48:43.184Z,4.27
2019-03-20T05:51:12.911Z,4.25
2019-03-20T05:53:42.254Z,4.26
2019-03-20T05:56:11.840Z,4.24
2019-03-20T05:58:42.174Z,4.28
2019-03-20T06:01:12.147Z,4.32
2019-03-20T06:03:42.258Z,4.36
2019-03-20T06:06:13.247Z,4.44
2019-03-20T06:08:43.145Z,4.49
2019-03-20T06:11:12.810Z,4.54
2019-03-20T06:13:42.222Z,4.58
2019-03-20T06:16:11.904Z,4.58
2019-03-20T06:18:42.273Z,4.62
2019-03-20T06:21:11.902Z,4.71
2019-03-20T06:23:42.210Z,4.82
2019-03-20T06:26:12.117Z,4.92
2019-03-20T06:28:42.301Z,5.04
2019-03-20T06:31:11.980Z,5.17
2019-03-20T06:33:42.422Z,5.29
2019-03-20T06:36:11.974Z,5.37
2019-03-20T06:38:42.315Z,5.47
2019-03-20T06:41:11.934Z,5.59
2019-03-20T06:43:42.274Z,5.75
2019-03-20T06:46:11.927Z,5.88
2019-03-20T06:48:42.441Z,5.98
2019-03-20T06:51:12.055Z,6.06
2019-03-20T06:54:00.538Z,6.22
2019-03-20T06:56:29.973Z,6.37
2019-03-20T06:59:38.603Z,6.51
2019-03-20T07:02:07.953Z,6.61
2019-03-20T07:05:08.360Z,6.73
2019-03-20T07:11:19.096Z,6.97
2019-03-20T07:13:50.642Z,7.08
2019-03-20T07:16:39.120Z,7.15
2019-03-20T07:19:08.492Z,7.24
2019-03-20T07:21:38.077Z,7.38
2019-03-20T07:24:07.447Z,7.56
2019-03-20T07:26:37.086Z,7.70
2019-03-20T07:29:06.457Z,7.88
2019-03-20T07:31:36.113Z,8.06
2019-03-20T07:34:05.479Z,8.35
2019-03-20T07:36:35.118Z,8.68
2019-03-20T07:39:44.511Z,8.94
2019-03-20T07:42:14.103Z,9.08
2019-03-20T07:44:43.745Z,9.26
2019-03-20T07:47:13.123Z,9.43
2019-03-20T07:49:42.527Z,9.53
2019-03-20T07:52:12.199Z,9.57
2019-03-20T07:54:42.455Z,9.68
2019-03-20T07:57:24.763Z,9.77
2019-03-20T07:59:54.693Z,9.77
2019-03-20T08:02:43.484Z,9.97
2019-03-20T08:05:13.351Z,9.97
2019-03-20T08:07:43.059Z,10.20
2019-03-20T08:13:33.664Z,10.52
2019-03-20T08:18:51.746Z,10.50
2019-03-20T08:21:21.230Z,10.41
2019-03-20T08:23:52.682Z,10.41
2019-03-20T08:26:22.213Z,10.36
2019-03-20T08:28:51.889Z,10.36
2019-03-20T08:31:40.681Z,10.55
2019-03-20T08:34:22.456Z,10.63
2019-03-20T08:36:52.129Z,10.63
2019-03-20T08:39:21.508Z,10.74
2019-03-20T08:41:51.197Z,10.88
2019-03-20T08:44:20.575Z,11.10
2019-03-20T08:46:50.532Z,11.25
2019-03-20T08:49:39.250Z,11.11
2019-03-20T08:52:08.614Z,11.11
2019-03-20T08:54:57.624Z,10.89
2019-03-20T08:57:39.454Z,10.82
2019-03-20T09:00:49.166Z,10.82
2019-03-20T09:03:18.553Z,10.76
2019-03-20T09:05:48.573Z,10.74
2019-03-20T09:08:28.469Z,10.79
2019-03-20T09:10:54.620Z,10.79
2019-03-20T09:13:43.833Z,10.96
2019-03-20T09:16:25.457Z,11.08
2019-03-20T09:18:55.137Z,11.08
2019-03-20T09:21:24.501Z,11.13
2019-03-20T09:23:53.928Z,11.19
2019-03-20T09:26:23.434Z,11.22
2019-03-20T09:28:52.813Z,11.18
2019-03-20T09:31:22.269Z,11.24
2019-03-20T09:33:51.861Z,11.30
2019-03-20T09:36:21.303Z,11.33
2019-03-20T09:38:50.990Z,11.33
2019-03-20T09:41:20.435Z,11.42
2019-03-20T09:43:49.825Z,11.60
2019-03-20T09:46:19.367Z,11.72
2019-03-20T09:48:48.753Z,11.80
2019-03-20T09:51:19.832Z,11.93
2019-03-20T09:53:49.608Z,12.07
2019-03-20T09:56:18.971Z,12.15
2019-03-20T09:58:50.270Z,12.22
2019-03-20T10:01:19.631Z,12.14
2019-03-20T10:03:49.339Z,12.10
2019-03-20T10:06:18.696Z,12.13
2019-03-20T10:08:54.056Z,12.18
2019-03-20T10:11:38.824Z,12.38
2019-03-20T10:14:08.505Z,12.67
2019-03-20T10:16:37.867Z,12.88
2019-03-20T10:19:07.445Z,12.97
2019-03-20T10:24:25.452Z,12.91
2019-03-20T10:26:55.117Z,12.88
2019-03-20T10:29:24.642Z,12.87
2019-03-20T10:31:54.296Z,12.91
2019-03-20T10:34:23.681Z,12.93
2019-03-20T10:36:53.049Z,13.00
2019-03-20T10:39:22.569Z,13.05
2019-03-20T10:41:52.235Z,13.13
2019-03-20T10:44:21.612Z,13.25
2019-03-20T10:46:50.990Z,13.34
2019-03-20T10:49:20.521Z,13.42
2019-03-20T10:51:50.206Z,13.56
2019-03-20T10:54:27.921Z,13.46
2019-03-20T10:56:57.868Z,13.27
2019-03-20T10:59:27.232Z,13.14
2019-03-20T11:01:56.923Z,13.11
2019-03-20T11:04:26.609Z,13.08
2019-03-20T11:06:55.993Z,12.99
2019-03-20T11:09:25.594Z,12.93
2019-03-20T11:11:54.942Z,12.97
2019-03-20T11:14:24.625Z,12.96
2019-03-20T11:16:54.175Z,13.05
2019-03-20T11:19:34.977Z,13.00
2019-03-20T11:22:04.776Z,12.97
2019-03-20T11:24:34.149Z,12.93
2019-03-20T11:27:03.571Z,12.92
2019-03-20T11:29:32.944Z,12.94
2019-03-20T11:32:02.619Z,12.89
2019-03-20T11:34:31.994Z,12.86
2019-03-20T11:37:01.578Z,12.88
2019-03-20T11:39:30.969Z,12.91
2019-03-20T11:42:00.990Z,12.90
2019-03-20T11:44:30.355Z,12.91
2019-03-20T11:46:59.777Z,12.96
2019-03-20T11:49:29.150Z,13.05
2019-03-20T11:51:58.634Z,13.10
2019-03-20T11:54:27.995Z,13.15
2019-03-20T11:56:57.993Z,13.18
2019-03-20T11:59:27.353Z,13.05
2019-03-20T12:01:58.987Z,13.05
2019-03-20T12:04:30.720Z,12.94
2019-03-20T12:07:00.382Z,12.91
2019-03-20T12:09:40.486Z,12.90
2019-03-20T12:12:19.912Z,12.85
2019-03-20T12:14:49.292Z,12.84
2019-03-20T12:17:20.283Z,12.88
2019-03-20T12:19:56.032Z,12.91
2019-03-20T12:22:25.697Z,12.96
2019-03-20T12:24:55.387Z,12.96
2019-03-20T12:27:25.007Z,12.99
2019-03-20T12:29:55.032Z,12.98
2019-03-20T12:32:43.750Z,12.98
2019-03-20T12:35:34.536Z,12.98
2019-03-20T12:38:13.640Z,13.09
2019-03-20T12:40:40.786Z,13.20
2019-03-20T12:43:10.145Z,13.23
2019-03-20T12:46:19.919Z,13.23
2019-03-20T12:48:49.280Z,13.23
2019-03-20T12:51:18.899Z,13.23
2019-03-20T12:53:48.963Z,13.32
2019-03-20T12:56:18.373Z,13.34
2019-03-20T12:58:48.074Z,13.28
2019-03-20T13:01:17.764Z,13.28
2019-03-20T13:03:47.177Z,13.24
2019-03-20T13:06:16.902Z,13.19
2019-03-20T13:08:48.212Z,13.17
2019-03-20T13:11:17.595Z,13.13
2019-03-20T13:13:47.121Z,13.10
2019-03-20T13:16:16.802Z,13.09
2019-03-20T13:18:46.259Z,13.07
2019-03-20T13:21:16.253Z,13.04
2019-03-20T13:23:46.266Z,12.94
2019-03-20T13:26:35.084Z,12.89
2019-03-20T13:29:04.447Z,12.90
2019-03-20T13:31:33.905Z,12.90
2019-03-20T13:34:03.545Z,12.91
2019-03-20T13:36:32.922Z,12.95
2019-03-20T13:39:02.302Z,12.99
2019-03-20T13:41:33.293Z,13.05
2019-03-20T13:44:02.977Z,13.08
2019-03-20T13:46:32.358Z,13.11
2019-03-20T13:49:02.052Z,13.17
2019-03-20T13:51:31.421Z,13.21
2019-03-20T13:54:01.339Z,13.19
2019-03-20T13:56:31.000Z,13.18
2019-03-20T13:59:00.375Z,13.18
2019-03-20T14:01:30.036Z,13.11
2019-03-20T14:03:59.416Z,13.03
2019-03-20T14:06:29.041Z,12.93
2019-03-20T14:08:58.732Z,12.88
2019-03-20T14:11:28.491Z,12.86
2019-03-20T14:13:58.141Z,12.86
2019-03-20T14:16:27.522Z,12.83
2019-03-20T14:18:57.538Z,12.79
2019-03-20T14:21:27.169Z,12.78
2019-03-20T14:23:56.540Z,12.78
2019-03-20T14:26:26.188Z,12.76
2019-03-20T14:28:55.555Z,12.81
2019-03-20T14:31:25.074Z,12.90
2019-03-20T14:33:54.642Z,12.97
2019-03-20T14:36:24.475Z,13.01
2019-03-20T14:38:54.154Z,13.02
2019-03-20T14:41:23.534Z,13.03
2019-03-20T14:43:53.203Z,13.02
2019-03-20T14:46:22.571Z,13.02
2019-03-20T14:48:52.243Z,13.03
2019-03-20T14:51:21.613Z,13.04
2019-03-20T14:53:51.452Z,13.04
2019-03-20T14:56:20.822Z,13.05
2019-03-20T14:58:50.529Z,13.12
2019-03-20T15:01:20.104Z,13.10
2019-03-20T15:03:49.490Z,13.06
2019-03-20T15:06:19.410Z,13.04
2019-03-20T15:08:49.372Z,12.98
2019-03-20T15:11:18.747Z,12.93
2019-03-20T15:13:48.421Z,12.93
2019-03-20T15:16:18.075Z,12.96
2019-03-20T15:18:47.532Z,12.97
2019-03-20T15:21:17.194Z,13.01
2019-03-20T15:23:46.854Z,13.02
2019-03-20T15:26:16.279Z,13.02
2019-03-20T15:28:45.661Z,12.99
2019-03-20T15:31:15.242Z,12.98
2019-03-20T15:33:44.863Z,13.01
2019-03-20T15:36:14.234Z,13.02
2019-03-20T15:38:43.685Z,13.04
2019-03-20T15:41:14.045Z,13.07
2019-03-20T15:44:03.571Z,13.07
2019-03-20T15:46:33.210Z,13.06
2019-03-20T15:49:02.598Z,13.07
2019-03-20T15:51:32.270Z,13.10
2019-03-20T15:54:01.642Z,13.11
2019-03-20T15:56:31.302Z,13.13
2019-03-20T15:59:00.683Z,13.11
2019-03-20T16:01:30.343Z,13.10
2019-03-20T16:03:59.720Z,13.05
2019-03-20T16:06:29.286Z,13.09
2019-03-20T16:08:58.964Z,13.12
2019-03-20T16:11:28.441Z,13.11
2019-03-20T16:16:46.483Z,13.06
2019-03-20T16:19:15.859Z,13.07
2019-03-20T16:21:45.533Z,13.04
2019-03-20T16:24:14.891Z,13.03
2019-03-20T16:26:44.562Z,13.03
2019-03-20T16:29:14.232Z,13.04
2019-03-20T16:31:43.865Z,13.00
2019-03-20T16:34:13.366Z,12.96
2019-03-20T16:36:43.788Z,12.92
2019-03-20T16:39:13.322Z,12.91
2019-03-20T16:41:43.700Z,12.89
2019-03-20T16:44:13.052Z,12.89
2019-03-20T16:46:44.758Z,12.89
2019-03-20T16:49:34.293Z,12.91
2019-03-20T16:52:03.920Z,12.87
2019-03-20T16:54:33.427Z,12.82
2019-03-20T16:57:02.823Z,12.78
2019-03-20T16:59:45.038Z,12.64
2019-03-20T17:02:14.593Z,12.64
2019-03-20T17:04:44.002Z,12.69
2019-03-20T17:07:15.280Z,12.66
2019-03-20T17:09:45.038Z,12.63
2019-03-20T17:12:14.436Z,12.60
2019-03-20T17:14:43.943Z,12.52
2019-03-20T17:17:13.457Z,12.46
2019-03-20T17:19:43.804Z,12.42
2019-03-20T17:22:13.432Z,12.38
2019-03-20T17:24:43.944Z,12.35
2019-03-20T17:27:13.444Z,12.35
2019-03-20T17:29:43.804Z,12.37
2019-03-20T17:32:13.766Z,12.34
2019-03-20T17:34:43.918Z,12.32
2019-03-20T17:37:13.561Z,12.29
2019-03-20T17:39:43.880Z,12.25
2019-03-20T17:42:13.569Z,12.20
2019-03-20T17:44:43.991Z,12.19
2019-03-20T17:47:13.641Z,12.19
2019-03-20T17:49:43.963Z,12.19
2019-03-20T17:52:13.581Z,12.13
2019-03-20T17:54:43.893Z,12.14
2019-03-20T17:57:13.503Z,12.12
2019-03-20T17:59:43.851Z,12.12
2019-03-20T18:02:23.274Z,12.07
2019-03-20T18:05:13.107Z,12.02
2019-03-20T18:07:44.109Z,11.96
2019-03-20T18:10:33.316Z,11.95
2019-03-20T18:13:02.686Z,11.97
2019-03-20T18:15:32.412Z,11.97
2019-03-20T18:18:01.791Z,11.97
2019-03-20T18:20:31.156Z,11.92
2019-03-20T18:23:02.486Z,11.90
2019-03-20T18:25:31.849Z,11.88
2019-03-20T18:28:01.536Z,11.85
2019-03-20T18:30:50.234Z,11.82
2019-03-20T18:33:19.623Z,11.83
2019-03-20T18:35:49.211Z,11.84
2019-03-20T18:38:30.605Z,11.74
2019-03-20T18:41:00.017Z,11.74
2019-03-20T18:43:29.646Z,11.79
2019-03-20T18:45:59.310Z,11.81
2019-03-20T18:48:28.692Z,11.80
2019-03-20T18:50:58.351Z,11.82
2019-03-20T18:53:28.091Z,11.84
2019-03-20T18:55:58.035Z,11.83
2019-03-20T18:58:27.722Z,11.84
2019-03-20T19:00:57.112Z,11.87
2019-03-20T19:04:05.925Z,11.88
2019-03-20T19:06:54.957Z,11.80
2019-03-20T19:09:24.624Z,11.80
2019-03-20T19:11:54.314Z,11.83
2019-03-20T19:14:23.834Z,11.83
2019-03-20T19:16:55.138Z,11.84
2019-03-20T19:19:24.354Z,11.81
2019-03-20T19:21:53.802Z,11.82
2019-03-20T19:24:23.436Z,11.84
2019-03-20T19:26:53.110Z,11.78
2019-03-20T19:29:22.782Z,11.74
2019-03-20T19:31:52.166Z,11.73
2019-03-20T19:34:21.822Z,11.70
2019-03-20T19:36:51.211Z,11.68
2019-03-20T19:39:20.801Z,11.67
2019-03-20T19:41:50.178Z,11.67
2019-03-20T19:44:19.847Z,11.63
2019-03-20T19:46:51.151Z,11.63
2019-03-20T19:49:20.905Z,11.65
2019-03-20T19:51:50.286Z,11.66
2019-03-20T19:54:19.802Z,11.69
2019-03-20T19:56:49.479Z,11.68
2019-03-20T19:59:18.939Z,11.68
2019-03-20T20:01:48.326Z,11.69
2019-03-20T20:04:17.962Z,11.68
2019-03-20T20:06:47.653Z,11.67
2019-03-20T20:09:17.470Z,11.67
2019-03-20T20:11:47.110Z,11.63
2019-03-20T20:14:35.813Z,11.55
2019-03-20T20:17:05.207Z,11.64
2019-03-20T20:19:34.781Z,11.61
2019-03-20T20:22:04.149Z,11.59
2019-03-20T20:24:33.829Z,11.60
2019-03-20T20:27:03.218Z,11.62
2019-03-20T20:29:32.581Z,11.64
2019-03-20T20:32:02.262Z,11.64
2019-03-20T20:34:32.211Z,11.64
2019-03-20T20:37:01.877Z,11.63
2019-03-20T20:39:31.258Z,11.62
2019-03-20T20:42:01.246Z,11.62
2019-03-20T20:44:30.607Z,11.64
2019-03-20T20:47:00.644Z,11.65
2019-03-20T20:49:32.183Z,11.66
2019-03-20T20:52:20.480Z,11.66
2019-03-20T20:54:49.953Z,11.66
2019-03-20T20:57:19.655Z,11.65
2019-03-20T20:59:49.310Z,11.59
2019-03-20T21:02:18.878Z,11.59
2019-03-20T21:07:44.460Z,11.62
2019-03-20T21:10:33.422Z,11.65
2019-03-20T21:13:03.000Z,11.62
2019-03-20T21:15:51.776Z,11.61
2019-03-20T21:18:59.873Z,11.62
2019-03-20T21:21:29.253Z,11.63
2019-03-20T21:24:37.935Z,11.63
2019-03-20T21:30:48.030Z,11.61
2019-03-20T21:33:59.123Z,11.64
2019-03-20T21:37:09.286Z,11.64
2019-03-20T21:39:39.315Z,11.66
2019-03-20T21:42:47.701Z,11.68
2019-03-20T21:45:55.803Z,11.68
2019-03-20T21:48:25.184Z,11.68
2019-03-20T21:51:14.261Z,11.68
2019-03-20T21:54:23.225Z,11.68
2019-03-20T22:03:15.123Z,11.68
2019-03-20T22:06:24.911Z,11.69
2019-03-20T22:08:54.424Z,11.66
2019-03-20T22:12:02.532Z,11.66
2019-03-20T22:14:32.212Z,11.69
2019-03-20T22:17:50.074Z,11.70
2019-03-20T22:23:50.481Z,11.73
2019-03-20T22:26:58.756Z,11.74
2019-03-20T22:29:28.407Z,11.72
2019-03-20T22:32:36.514Z,11.71
2019-03-20T22:35:44.586Z,11.71
2019-03-20T22:38:54.369Z,11.71
2019-03-20T22:42:02.501Z,11.71
2019-03-20T22:44:43.225Z,11.71
2019-03-20T22:47:51.317Z,11.69
2019-03-20T22:54:02.120Z,11.70
2019-03-20T22:57:10.270Z,11.68
2019-03-20T22:59:39.632Z,11.69
2019-03-20T23:02:49.391Z,11.70
2019-03-20T23:05:18.760Z,11.70
2019-03-20T23:07:48.442Z,11.69
2019-03-20T23:13:52.411Z,11.70
2019-03-20T23:16:33.981Z,11.66
2019-03-20T23:19:03.361Z,11.66
2019-03-20T23:21:32.721Z,11.66
2019-03-20T23:24:02.804Z,11.63
2019-03-20T23:26:32.317Z,11.62
2019-03-20T23:29:03.803Z,11.57
2019-03-20T23:31:33.360Z,11.52
2019-03-20T23:34:02.993Z,11.48
2019-03-20T23:36:32.507Z,11.47
2019-03-20T23:39:02.298Z,11.47
2019-03-20T23:41:33.373Z,11.49
2019-03-20T23:44:02.761Z,11.49
2019-03-20T23:46:32.366Z,11.47
2019-03-20T23:49:22.254Z,11.47
2019-03-20T23:52:11.286Z,11.47
2019-03-20T23:55:00.000Z,11.46
2019-03-20T23:57:29.552Z,11.45
2019-03-20T23:59:58.938Z,11.46
